Time;durP1;ratioP1;P1;durP2;ratioP2;P2;SDS_P1;SDS_P2;PMS_P1;PMS_P2;Temp;Humidity;BMP_temperature;BMP_pressure;BME280_temperature;BME280_humidity;BME280_pressure;Samples;Min_cycle;Max_cycle;Signal;HPM_P1;HPM_P2
2022/10/21 00:00:01;;;;;;;8.55;7.10;;;;;;;;;;1044922;28;20111;-84
2022/10/21 00:00:32;;;;;;;11.70;7.75;;;;;;;;;;1041828;28;20498;-83
2022/10/21 00:01:03;;;;;;;11.43;6.65;;;;;;;;;;1039937;28;20021;-84
2022/10/21 00:01:34;;;;;;;12.88;8.05;;;;;;;;;;1035906;28;20068;-84
2022/10/21 00:02:05;;;;;;;9.68;8.68;;;;;;;;;;1039438;28;20024;-84
2022/10/21 00:02:36;;;;;;;9.00;7.55;;;;;;;;;;1040461;28;20018;-83
2022/10/21 00:03:08;;;;;;;9.90;7.72;;;;;;;;;;1036518;28;20017;-84
2022/10/21 00:03:39;;;;;;;9.55;8.23;;;;;;;;;;1031221;28;20014;-84
2022/10/21 00:04:10;;;;;;;9.48;7.45;;;;;;;;;;1034447;28;20018;-85
2022/10/21 00:04:41;;;;;;;10.45;8.13;;;;;;;;;;1035947;28;20021;-84
2022/10/21 00:05:12;;;;;;;8.70;6.40;;;;;;;;;;1040425;28;20548;-84
2022/10/21 00:05:43;;;;;;;10.98;6.88;;;;;;;;;;1035659;28;20014;-84
2022/10/21 00:06:14;;;;;;;8.93;6.72;;;;;;;;;;1035219;28;20774;-84
2022/10/21 00:06:45;;;;;;;11.00;7.43;;;;;;;;;;1035985;28;20682;-84
2022/10/21 00:07:16;;;;;;;9.25;7.60;;;;;;;;;;1035508;28;20026;-84
2022/10/21 00:07:47;;;;;;;9.90;6.32;;;;;;;;;;1035996;28;20042;-84
2022/10/21 00:08:19;;;;;;;12.25;8.30;;;;;;;;;;1031786;28;20022;-84
2022/10/21 00:08:49;;;;;;;7.97;6.35;;;;;;;;;;1035886;28;20030;-84
2022/10/21 00:09:20;;;;;;;10.77;7.07;;;;;;;;;;1039340;28;20025;-84
2022/10/21 00:09:51;;;;;;;8.88;7.70;;;;;;;;;;1040063;28;20335;-84
2022/10/21 00:10:22;;;;;;;9.75;7.78;;;;;;;;;;1038536;28;20306;-84
2022/10/21 00:10:54;;;;;;;10.10;8.55;;;;;;;;;;1035787;28;20095;-84
2022/10/21 00:11:25;;;;;;;12.15;9.10;;;;;;;;;;1031472;28;20117;-84
2022/10/21 00:11:56;;;;;;;10.45;6.97;;;;;;;;;;1028567;28;20031;-85
2022/10/21 00:12:28;;;;;;;9.85;7.63;;;;;;;;;;1031444;28;20121;-84
2022/10/21 00:12:59;;;;;;;8.20;7.15;;;;;;;;;;1032362;28;20073;-84
2022/10/21 00:13:31;;;;;;;9.52;7.95;;;;;;;;;;1035572;28;20079;-85
2022/10/21 00:14:02;;;;;;;12.82;9.43;;;;;;;;;;1039332;28;20533;-84
2022/10/21 00:14:33;;;;;;;14.93;7.65;;;;;;;;;;1038209;28;20017;-85
2022/10/21 00:15:05;;;;;;;8.32;6.85;;;;;;;;;;1035768;28;20026;-85
2022/10/21 00:15:37;;;;;;;11.88;7.10;;;;;;;;;;1031558;28;20120;-84
2022/10/21 00:16:08;;;;;;;9.35;7.90;;;;;;;;;;1024177;28;20023;-84
2022/10/21 00:16:39;;;;;;;8.52;7.45;;;;;;;;;;1023657;28;20553;-84
2022/10/21 00:17:10;;;;;;;11.90;8.52;;;;;;;;;;1029231;28;20037;-84
2022/10/21 00:17:42;;;;;;;13.05;8.32;;;;;;;;;;1035816;28;20034;-82
2022/10/21 00:18:13;;;;;;;8.45;7.45;;;;;;;;;;1036202;28;20029;-83
2022/10/21 00:18:44;;;;;;;9.70;7.72;;;;;;;;;;1039044;28;20119;-83
2022/10/21 00:19:15;;;;;;;9.68;8.65;;;;;;;;;;1039099;28;20088;-83
2022/10/21 00:19:46;;;;;;;8.45;5.82;;;;;;;;;;1035107;28;20030;-83
2022/10/21 00:20:17;;;;;;;12.93;7.72;;;;;;;;;;1031774;28;20062;-83
2022/10/21 00:20:48;;;;;;;11.52;9.63;;;;;;;;;;1031460;28;20026;-83
2022/10/21 00:21:21;;;;;;;9.77;8.73;;;;;;;;;;1038297;28;20022;-82
2022/10/21 00:21:52;;;;;;;9.18;7.22;;;;;;;;;;1038824;28;20029;-82
2022/10/21 00:22:23;;;;;;;11.50;9.85;;;;;;;;;;1035633;28;20050;-83
2022/10/21 00:22:53;;;;;;;9.15;8.07;;;;;;;;;;1035837;28;20057;-82
2022/10/21 00:23:25;;;;;;;12.48;8.73;;;;;;;;;;1031483;28;20477;-82
2022/10/21 00:23:56;;;;;;;13.15;7.95;;;;;;;;;;1031453;28;20030;-82
2022/10/21 00:24:27;;;;;;;10.52;8.30;;;;;;;;;;1031592;28;20038;-82
2022/10/21 00:24:58;;;;;;;8.50;7.60;;;;;;;;;;1031137;28;20038;-82
2022/10/21 00:25:29;;;;;;;9.10;7.18;;;;;;;;;;1032079;28;20030;-81
2022/10/21 00:26:00;;;;;;;11.98;7.13;;;;;;;;;;1035194;28;20176;-81
2022/10/21 00:26:31;;;;;;;15.18;9.35;;;;;;;;;;1031521;28;20077;-82
2022/10/21 00:27:02;;;;;;;9.32;6.22;;;;;;;;;;1030548;28;20117;-80
2022/10/21 00:27:33;;;;;;;8.88;7.45;;;;;;;;;;1033675;28;21802;-79
2022/10/21 00:28:04;;;;;;;9.35;7.53;;;;;;;;;;1032293;28;20089;-80
2022/10/21 00:28:35;;;;;;;12.98;7.78;;;;;;;;;;1035720;28;20033;-80
2022/10/21 00:29:06;;;;;;;12.57;7.47;;;;;;;;;;1037035;28;20022;-80
2022/10/21 00:29:37;;;;;;;10.70;8.13;;;;;;;;;;1039664;28;20017;-80
2022/10/21 00:30:08;;;;;;;14.20;9.50;;;;;;;;;;1039301;28;20033;-81
2022/10/21 00:30:45;;;;;;;14.75;9.73;;;;;;;;;;1036048;28;20018;-81
2022/10/21 00:31:16;;;;;;;11.63;8.57;;;;;;;;;;1035553;28;20398;-81
2022/10/21 00:31:47;;;;;;;9.98;8.20;;;;;;;;;;1036618;28;20456;-81
2022/10/21 00:32:18;;;;;;;11.02;7.85;;;;;;;;;;1040267;28;20100;-80
2022/10/21 00:32:49;;;;;;;14.07;8.45;;;;;;;;;;1039579;28;20032;-79
2022/10/21 00:33:20;;;;;;;11.02;8.25;;;;;;;;;;1039720;28;20029;-79
2022/10/21 00:33:51;;;;;;;12.43;6.85;;;;;;;;;;1035614;28;20018;-80
2022/10/21 00:34:23;;;;;;;9.27;7.82;;;;;;;;;;1041985;28;20021;-80
2022/10/21 00:34:54;;;;;;;10.05;7.47;;;;;;;;;;1043650;28;20894;-80
2022/10/21 00:35:25;;;;;;;8.10;6.72;;;;;;;;;;1043306;28;20391;-80
2022/10/21 00:35:57;;;;;;;7.25;6.05;;;;;;;;;;1041207;28;20029;-80
2022/10/21 00:36:30;;;;;;;11.73;8.20;;;;;;;;;;1031755;28;20121;-80
2022/10/21 00:37:01;;;;;;;11.88;7.95;;;;;;;;;;1035658;28;20065;-80
2022/10/21 00:37:32;;;;;;;14.35;8.52;;;;;;;;;;1035476;28;20096;-80
2022/10/21 00:38:03;;;;;;;10.95;7.80;;;;;;;;;;1036468;28;20080;-80
2022/10/21 00:38:37;;;;;;;9.77;7.05;;;;;;;;;;1040979;28;20056;-80
2022/10/21 00:39:08;;;;;;;12.55;7.93;;;;;;;;;;1040211;28;20417;-79
2022/10/21 00:39:41;;;;;;;8.32;7.25;;;;;;;;;;1039419;28;20022;-80
2022/10/21 00:40:12;;;;;;;8.13;7.32;;;;;;;;;;1039398;28;20239;-80
2022/10/21 00:40:43;;;;;;;10.52;7.45;;;;;;;;;;1035612;28;20029;-80
2022/10/21 00:41:14;;;;;;;10.10;8.45;;;;;;;;;;1032282;28;20120;-80
2022/10/21 00:41:45;;;;;;;12.07;7.55;;;;;;;;;;1031358;28;20033;-80
2022/10/21 00:42:17;;;;;;;10.23;7.60;;;;;;;;;;1032642;28;20038;-80
2022/10/21 00:42:48;;;;;;;8.30;6.72;;;;;;;;;;1031632;28;20492;-80
2022/10/21 00:43:19;;;;;;;11.88;7.97;;;;;;;;;;1032559;28;20556;-80
2022/10/21 00:43:58;;;;;;;8.43;7.53;;;;;;;;;;1033938;28;20027;-79
2022/10/21 00:44:29;;;;;;;8.43;6.88;;;;;;;;;;1031922;28;20040;-81
2022/10/21 00:45:06;;;;;;;9.20;7.63;;;;;;;;;;1033055;28;20030;-79
2022/10/21 00:45:37;;;;;;;11.85;6.75;;;;;;;;;;1034270;28;20026;-81
2022/10/21 00:46:10;;;;;;;8.85;6.57;;;;;;;;;;1033212;28;20085;-81
2022/10/21 00:46:55;;;;;;;10.75;7.15;;;;;;;;;;1031595;28;20398;-81
2022/10/21 00:47:26;;;;;;;8.95;7.30;;;;;;;;;;1034355;28;20038;-81
2022/10/21 00:48:12;;;;;;;8.57;6.63;;;;;;;;;;1037769;28;20378;-81
2022/10/21 00:48:47;;;;;;;11.48;6.97;;;;;;;;;;1040639;28;20021;-81
2022/10/21 00:49:18;;;;;;;10.90;7.78;;;;;;;;;;1039295;28;20123;-80
2022/10/21 00:49:54;;;;;;;9.35;7.68;;;;;;;;;;1039700;28;20047;-81
2022/10/21 00:50:39;;;;;;;8.85;6.38;;;;;;;;;;1039835;28;20100;-80
2022/10/21 00:51:15;;;;;;;7.35;6.05;;;;;;;;;;1039173;28;20032;-81
2022/10/21 00:51:47;;;;;;;8.50;6.63;;;;;;;;;;1035843;28;20018;-81
2022/10/21 00:52:20;;;;;;;13.63;6.80;;;;;;;;;;1036558;28;20030;-81
2022/10/21 00:52:52;;;;;;;9.50;7.55;;;;;;;;;;1039678;28;20712;-82
2022/10/21 00:53:24;;;;;;;12.07;7.38;;;;;;;;;;1039030;28;20027;-81
2022/10/21 00:53:55;;;;;;;8.00;6.45;;;;;;;;;;1039863;28;20022;-81
2022/10/21 00:54:26;;;;;;;8.60;6.15;;;;;;;;;;1039392;28;20067;-81
2022/10/21 00:54:59;;;;;;;11.35;7.05;;;;;;;;;;1040027;28;20112;-81
2022/10/21 00:55:33;;;;;;;7.75;6.53;;;;;;;;;;1039561;28;20022;-81
2022/10/21 00:56:06;;;;;;;8.07;6.10;;;;;;;;;;1034815;28;20036;-81
2022/10/21 00:56:38;;;;;;;12.32;5.95;;;;;;;;;;1031749;28;20788;-80
2022/10/21 00:57:10;;;;;;;10.05;7.38;;;;;;;;;;1032718;28;20029;-81
2022/10/21 00:57:41;;;;;;;10.45;7.63;;;;;;;;;;1035263;28;20040;-82
2022/10/21 00:58:12;;;;;;;10.63;8.27;;;;;;;;;;1035565;28;20030;-82
2022/10/21 00:58:43;;;;;;;12.35;7.80;;;;;;;;;;1036126;28;20030;-81
2022/10/21 00:59:15;;;;;;;7.47;6.63;;;;;;;;;;1042506;28;20054;-81
2022/10/21 00:59:51;;;;;;;7.57;6.38;;;;;;;;;;1035362;28;20540;-81
2022/10/21 01:00:22;;;;;;;8.90;7.13;;;;;;;;;;1035492;28;20554;-81
2022/10/21 01:00:55;;;;;;;9.38;6.80;;;;;;;;;;1035581;28;20659;-81
2022/10/21 01:01:26;;;;;;;9.52;6.93;;;;;;;;;;1037532;28;20022;-81
2022/10/21 01:01:57;;;;;;;7.93;6.85;;;;;;;;;;1036168;28;20029;-81
2022/10/21 01:02:28;;;;;;;8.50;6.47;;;;;;;;;;1034726;28;20034;-81
2022/10/21 01:02:59;;;;;;;9.43;6.72;;;;;;;;;;1031790;28;20100;-81
2022/10/21 01:03:31;;;;;;;8.50;6.47;;;;;;;;;;1031463;28;20031;-83
2022/10/21 01:04:03;;;;;;;10.85;8.13;;;;;;;;;;1035400;28;20076;-81
2022/10/21 01:04:34;;;;;;;10.15;7.47;;;;;;;;;;1034304;28;20030;-81
2022/10/21 01:05:05;;;;;;;9.02;7.22;;;;;;;;;;1035797;28;20087;-81
2022/10/21 01:05:37;;;;;;;9.23;8.10;;;;;;;;;;1039718;28;20033;-81
2022/10/21 01:06:10;;;;;;;10.25;8.43;;;;;;;;;;1035694;28;20037;-81
2022/10/21 01:06:42;;;;;;;9.68;7.13;;;;;;;;;;1035974;28;20053;-81
2022/10/21 01:07:14;;;;;;;8.18;6.18;;;;;;;;;;1035382;28;20039;-81
2022/10/21 01:07:48;;;;;;;9.65;7.00;;;;;;;;;;1037590;28;20036;-81
2022/10/21 01:08:20;;;;;;;12.30;7.93;;;;;;;;;;1036504;28;20397;-81
2022/10/21 01:08:53;;;;;;;9.43;6.93;;;;;;;;;;1038857;28;20021;-81
2022/10/21 01:09:24;;;;;;;8.90;6.35;;;;;;;;;;1040609;28;20025;-81
2022/10/21 01:09:55;;;;;;;7.35;6.43;;;;;;;;;;1039304;28;20083;-81
2022/10/21 01:10:27;;;;;;;11.30;7.13;;;;;;;;;;1039397;28;20075;-82
2022/10/21 01:10:58;;;;;;;7.25;6.38;;;;;;;;;;1037349;28;20137;-83
2022/10/21 01:11:32;;;;;;;11.00;7.43;;;;;;;;;;1040020;28;20017;-83
2022/10/21 01:12:06;;;;;;;10.43;6.68;;;;;;;;;;1039113;28;20029;-83
2022/10/21 01:12:40;;;;;;;8.65;6.75;;;;;;;;;;1036620;28;20034;-82
2022/10/21 01:13:11;;;;;;;10.23;8.77;;;;;;;;;;1035492;28;20036;-82
2022/10/21 01:13:48;;;;;;;9.00;6.97;;;;;;;;;;1035017;28;20041;-83
2022/10/21 01:14:28;;;;;;;11.95;7.50;;;;;;;;;;1031816;28;20265;-83
2022/10/21 01:15:11;;;;;;;9.43;7.65;;;;;;;;;;1033766;28;20022;-82
2022/10/21 01:15:56;;;;;;;11.52;7.68;;;;;;;;;;1034794;28;20397;-82
2022/10/21 01:16:27;;;;;;;10.18;7.90;;;;;;;;;;1039225;28;20120;-83
2022/10/21 01:16:58;;;;;;;12.10;7.20;;;;;;;;;;1038311;28;20026;-83
2022/10/21 01:17:29;;;;;;;6.67;6.07;;;;;;;;;;1035236;28;20280;-83
2022/10/21 01:18:08;;;;;;;10.75;7.22;;;;;;;;;;1035416;28;20276;-83
2022/10/21 01:18:51;;;;;;;10.20;7.38;;;;;;;;;;1036285;28;20077;-83
2022/10/21 01:19:22;;;;;;;14.32;8.63;;;;;;;;;;1035775;28;20053;-83
2022/10/21 01:19:56;;;;;;;11.38;8.20;;;;;;;;;;1035691;28;20487;-83
2022/10/21 01:20:53;;;;;;;8.07;6.50;;;;;;;;;;1037267;28;20033;-83
2022/10/21 01:21:33;;;;;;;9.18;7.50;;;;;;;;;;1039729;28;20017;-82
2022/10/21 01:22:10;;;;;;;9.45;6.88;;;;;;;;;;1040403;28;20289;-83
2022/10/21 01:22:44;;;;;;;10.48;8.07;;;;;;;;;;1038998;28;20030;-83
2022/10/21 01:23:33;;;;;;;10.30;8.15;;;;;;;;;;1039482;28;20383;-82
2022/10/21 01:24:23;;;;;;;9.50;7.22;;;;;;;;;;1035246;28;20030;-81
2022/10/21 01:25:26;;;;;;;9.88;7.25;;;;;;;;;;1035303;28;20449;-81
2022/10/21 01:26:16;;;;;;;11.65;7.28;;;;;;;;;;1030648;28;20031;-82
2022/10/21 01:26:47;;;;;;;9.80;8.73;;;;;;;;;;1030069;28;20030;-82
2022/10/21 01:27:23;;;;;;;7.87;6.73;;;;;;;;;;1032240;28;20030;-83
2022/10/21 01:28:00;;;;;;;9.60;7.57;;;;;;;;;;1034554;28;20280;-82
2022/10/21 01:28:34;;;;;;;10.70;9.13;;;;;;;;;;1032670;28;20124;-82
2022/10/21 01:29:20;;;;;;;12.00;8.55;;;;;;;;;;1036930;28;20100;-82
2022/10/21 01:30:05;;;;;;;12.68;7.93;;;;;;;;;;1031403;28;20906;-83
2022/10/21 01:30:36;;;;;;;11.07;8.95;;;;;;;;;;1035017;28;20025;-82
2022/10/21 01:31:28;;;;;;;13.77;8.32;;;;;;;;;;1035298;28;20769;-82
2022/10/21 01:32:19;;;;;;;8.35;7.15;;;;;;;;;;1028607;28;20196;-82
2022/10/21 01:33:04;;;;;;;9.45;6.55;;;;;;;;;;1035748;28;20029;-83
2022/10/21 01:33:52;;;;;;;8.90;7.53;;;;;;;;;;1039143;28;20061;-82
2022/10/21 01:34:38;;;;;;;10.92;8.22;;;;;;;;;;1039182;28;20041;-82
2022/10/21 01:35:32;;;;;;;16.50;8.98;;;;;;;;;;1035839;28;20076;-82
2022/10/21 01:36:15;;;;;;;13.55;9.45;;;;;;;;;;1039426;28;20174;-82
2022/10/21 01:36:49;;;;;;;10.88;7.72;;;;;;;;;;1039423;28;20029;-82
2022/10/21 01:37:26;;;;;;;12.80;8.32;;;;;;;;;;1037351;28;20026;-82
2022/10/21 01:38:09;;;;;;;11.30;8.30;;;;;;;;;;1035268;28;20037;-82
2022/10/21 01:38:40;;;;;;;12.98;8.95;;;;;;;;;;1034885;28;20026;-83
2022/10/21 01:39:28;;;;;;;9.35;8.38;;;;;;;;;;1035070;28;20799;-82
2022/10/21 01:40:13;;;;;;;9.55;7.47;;;;;;;;;;1040295;28;20537;-82
2022/10/21 01:41:07;;;;;;;8.50;7.25;;;;;;;;;;1040631;28;20022;-82
2022/10/21 01:41:47;;;;;;;8.82;6.85;;;;;;;;;;1037853;28;20100;-83
2022/10/21 01:42:32;;;;;;;11.80;9.38;;;;;;;;;;1036439;28;20037;-82
2022/10/21 01:43:16;;;;;;;9.95;8.30;;;;;;;;;;1039354;28;20034;-82
2022/10/21 01:43:57;;;;;;;9.75;8.38;;;;;;;;;;1042900;28;20095;-83
2022/10/21 01:44:31;;;;;;;10.45;7.57;;;;;;;;;;1039277;28;20052;-83
2022/10/21 01:45:09;;;;;;;11.30;8.80;;;;;;;;;;1039791;28;20021;-83
2022/10/21 01:45:46;;;;;;;14.38;8.85;;;;;;;;;;1039356;28;20033;-83
2022/10/21 01:46:46;;;;;;;11.13;8.55;;;;;;;;;;1039328;28;20034;-82
2022/10/21 01:47:19;;;;;;;12.82;8.98;;;;;;;;;;1031392;28;20112;-83
2022/10/21 01:47:53;;;;;;;9.55;7.82;;;;;;;;;;1035048;28;20077;-83
2022/10/21 01:48:27;;;;;;;12.63;9.68;;;;;;;;;;1035270;28;20025;-83
2022/10/21 01:49:02;;;;;;;12.10;9.98;;;;;;;;;;1036483;28;20097;-83
2022/10/21 01:49:36;;;;;;;12.68;10.93;;;;;;;;;;1034855;28;20009;-83
2022/10/21 01:50:09;;;;;;;11.10;9.80;;;;;;;;;;1033255;28;20561;-83
2022/10/21 01:50:43;;;;;;;9.48;8.35;;;;;;;;;;1030863;28;20026;-83
2022/10/21 01:51:15;;;;;;;9.25;7.80;;;;;;;;;;1028354;28;20841;-83
2022/10/21 01:51:47;;;;;;;10.10;8.15;;;;;;;;;;1032170;28;20135;-83
2022/10/21 01:52:18;;;;;;;9.07;7.63;;;;;;;;;;1032046;28;20023;-84
2022/10/21 01:52:52;;;;;;;10.63;7.53;;;;;;;;;;1035443;28;20018;-81
2022/10/21 01:53:25;;;;;;;8.98;7.25;;;;;;;;;;1030791;28;20045;-83
2022/10/21 01:54:02;;;;;;;9.93;7.13;;;;;;;;;;1027969;28;20026;-82
2022/10/21 01:54:38;;;;;;;11.15;8.77;;;;;;;;;;1028673;28;20053;-83
2022/10/21 01:55:11;;;;;;;9.50;7.68;;;;;;;;;;1033660;28;20022;-81
2022/10/21 01:55:43;;;;;;;11.25;9.68;;;;;;;;;;1032881;28;20825;-82
2022/10/21 01:56:15;;;;;;;10.73;9.40;;;;;;;;;;1036268;28;20033;-81
2022/10/21 01:56:46;;;;;;;9.30;8.00;;;;;;;;;;1039127;28;20476;-82
2022/10/21 01:57:19;;;;;;;10.93;8.95;;;;;;;;;;1038977;28;20041;-84
2022/10/21 01:57:53;;;;;;;12.60;8.35;;;;;;;;;;1035606;28;20049;-83
2022/10/21 01:58:26;;;;;;;15.77;8.48;;;;;;;;;;1035118;28;20085;-82
2022/10/21 01:58:57;;;;;;;11.32;8.70;;;;;;;;;;1036072;28;20025;-82
2022/10/21 01:59:30;;;;;;;10.30;8.02;;;;;;;;;;1039014;28;20016;-83
2022/10/21 02:00:02;;;;;;;9.85;7.38;;;;;;;;;;1035627;28;20025;-83
2022/10/21 02:00:34;;;;;;;9.32;8.18;;;;;;;;;;1035738;28;20668;-82
2022/10/21 02:01:07;;;;;;;9.25;7.90;;;;;;;;;;1035165;28;20074;-83
2022/10/21 02:01:38;;;;;;;11.10;7.72;;;;;;;;;;1035444;28;20515;-82
2022/10/21 02:02:10;;;;;;;12.15;8.57;;;;;;;;;;1039379;28;20713;-83
2022/10/21 02:02:43;;;;;;;10.20;7.72;;;;;;;;;;1039673;28;20032;-83
2022/10/21 02:03:16;;;;;;;15.82;8.70;;;;;;;;;;1038939;28;20802;-82
2022/10/21 02:03:50;;;;;;;7.75;6.95;;;;;;;;;;1039117;28;20028;-82
2022/10/21 02:04:22;;;;;;;8.65;7.15;;;;;;;;;;1035749;28;20030;-83
2022/10/21 02:04:54;;;;;;;9.57;6.82;;;;;;;;;;1034952;28;20847;-83
2022/10/21 02:05:28;;;;;;;8.40;7.28;;;;;;;;;;1036662;28;20017;-83
2022/10/21 02:05:59;;;;;;;10.35;8.13;;;;;;;;;;1042034;28;20119;-83
2022/10/21 02:06:30;;;;;;;11.35;8.00;;;;;;;;;;1042729;28;20028;-83
2022/10/21 02:07:01;;;;;;;11.88;7.80;;;;;;;;;;1035677;28;20808;-83
2022/10/21 02:07:32;;;;;;;8.80;6.93;;;;;;;;;;1037291;28;20017;-83
2022/10/21 02:08:04;;;;;;;8.75;7.05;;;;;;;;;;1039568;28;20014;-82
2022/10/21 02:08:38;;;;;;;12.82;8.02;;;;;;;;;;1039267;28;20013;-82
2022/10/21 02:09:09;;;;;;;9.48;7.60;;;;;;;;;;1037944;28;20041;-83
2022/10/21 02:09:39;;;;;;;8.63;7.68;;;;;;;;;;1035499;28;20018;-82
2022/10/21 02:10:10;;;;;;;10.73;7.85;;;;;;;;;;1036808;28;20025;-82
2022/10/21 02:10:44;;;;;;;13.32;7.82;;;;;;;;;;1035654;28;20041;-82
2022/10/21 02:11:17;;;;;;;9.55;8.13;;;;;;;;;;1038133;28;20559;-82
2022/10/21 02:11:49;;;;;;;11.38;8.07;;;;;;;;;;1036762;28;20014;-83
2022/10/21 02:12:22;;;;;;;9.93;7.50;;;;;;;;;;1034805;28;20088;-82
2022/10/21 02:12:54;;;;;;;11.18;7.28;;;;;;;;;;1036657;28;20036;-82
2022/10/21 02:13:34;;;;;;;13.48;7.75;;;;;;;;;;1038471;28;20032;-81
2022/10/21 02:14:14;;;;;;;10.07;7.78;;;;;;;;;;1040683;28;20024;-83
2022/10/21 02:14:48;;;;;;;8.27;7.38;;;;;;;;;;1037304;28;20014;-83
2022/10/21 02:15:19;;;;;;;10.95;8.20;;;;;;;;;;1039269;28;20031;-82
2022/10/21 02:15:52;;;;;;;9.90;7.15;;;;;;;;;;1038959;28;20032;-82
2022/10/21 02:16:25;;;;;;;9.43;7.60;;;;;;;;;;1034713;28;20071;-83
2022/10/21 02:16:57;;;;;;;10.30;8.18;;;;;;;;;;1034699;28;20017;-82
2022/10/21 02:17:29;;;;;;;7.53;6.50;;;;;;;;;;1030670;28;20019;-83
2022/10/21 02:18:03;;;;;;;8.80;6.97;;;;;;;;;;1028102;28;20075;-82
2022/10/21 02:18:34;;;;;;;9.15;7.32;;;;;;;;;;1031649;28;20029;-82
2022/10/21 02:19:13;;;;;;;11.15;7.55;;;;;;;;;;1035606;28;20025;-83
2022/10/21 02:19:45;;;;;;;8.88;7.38;;;;;;;;;;1039100;28;20013;-82
2022/10/21 02:20:17;;;;;;;13.40;8.82;;;;;;;;;;1038726;28;20139;-82
2022/10/21 02:20:50;;;;;;;10.98;7.88;;;;;;;;;;1035481;28;20419;-82
2022/10/21 02:21:23;;;;;;;8.80;7.88;;;;;;;;;;1030620;28;20022;-81
2022/10/21 02:21:56;;;;;;;12.43;8.75;;;;;;;;;;1027186;28;20015;-81
2022/10/21 02:22:27;;;;;;;11.35;7.88;;;;;;;;;;1032701;28;20014;-82
2022/10/21 02:22:59;;;;;;;12.13;8.80;;;;;;;;;;1039973;28;20017;-82
2022/10/21 02:23:43;;;;;;;14.85;8.85;;;;;;;;;;1043926;28;20130;-83
2022/10/21 02:24:21;;;;;;;9.75;8.18;;;;;;;;;;1034501;28;20060;-83
2022/10/21 02:24:57;;;;;;;14.77;8.23;;;;;;;;;;1030829;28;20041;-82
2022/10/21 02:25:30;;;;;;;9.55;8.23;;;;;;;;;;1032623;28;20092;-83
2022/10/21 02:26:02;;;;;;;10.55;8.57;;;;;;;;;;1035528;28;20021;-82
2022/10/21 02:26:33;;;;;;;11.45;9.20;;;;;;;;;;1036082;28;20014;-82
2022/10/21 02:27:04;;;;;;;16.15;9.90;;;;;;;;;;1038040;28;20018;-83
2022/10/21 02:27:37;;;;;;;12.65;8.85;;;;;;;;;;1038741;28;20018;-82
2022/10/21 02:28:08;;;;;;;10.60;8.55;;;;;;;;;;1039192;28;20041;-83
2022/10/21 02:28:40;;;;;;;12.65;9.02;;;;;;;;;;1034897;28;20018;-83
2022/10/21 02:29:12;;;;;;;9.15;8.20;;;;;;;;;;1039678;28;20009;-83
2022/10/21 02:29:44;;;;;;;9.45;8.27;;;;;;;;;;1042872;28;20634;-83
2022/10/21 02:30:15;;;;;;;11.35;6.95;;;;;;;;;;1038544;28;20072;-82
2022/10/21 02:30:55;;;;;;;12.02;8.25;;;;;;;;;;1039188;28;20084;-83
2022/10/21 02:31:29;;;;;;;9.55;7.80;;;;;;;;;;1030706;28;20019;-83
2022/10/21 02:32:07;;;;;;;10.20;8.20;;;;;;;;;;1030348;28;20757;-83
2022/10/21 02:32:41;;;;;;;14.15;9.07;;;;;;;;;;1025387;28;20019;-82
2022/10/21 02:33:17;;;;;;;9.80;7.85;;;;;;;;;;1028809;28;20018;-83
2022/10/21 02:33:56;;;;;;;8.98;8.05;;;;;;;;;;1033565;28;20019;-83
2022/10/21 02:34:45;;;;;;;14.27;10.65;;;;;;;;;;1036972;28;20043;-82
2022/10/21 02:35:16;;;;;;;12.93;9.10;;;;;;;;;;1034375;28;20105;-82
2022/10/21 02:35:56;;;;;;;11.23;8.50;;;;;;;;;;1027160;28;20003;-82
2022/10/21 02:36:40;;;;;;;16.75;9.10;;;;;;;;;;1026171;28;20090;-82
2022/10/21 02:37:22;;;;;;;10.45;8.18;;;;;;;;;;1026586;28;20069;-83
2022/10/21 02:37:59;;;;;;;11.65;9.30;;;;;;;;;;1031927;28;20556;-83
2022/10/21 02:38:37;;;;;;;12.48;10.38;;;;;;;;;;1035080;28;20098;-82
2022/10/21 02:39:19;;;;;;;11.32;9.50;;;;;;;;;;1038359;28;20014;-82
2022/10/21 02:39:52;;;;;;;10.85;7.82;;;;;;;;;;1039096;28;20018;-82
2022/10/21 02:40:26;;;;;;;13.00;8.90;;;;;;;;;;1038623;28;20014;-83
2022/10/21 02:41:00;;;;;;;13.35;9.77;;;;;;;;;;1035499;28;20010;-82
2022/10/21 02:41:32;;;;;;;11.32;8.40;;;;;;;;;;1034459;28;20016;-83
2022/10/21 02:42:05;;;;;;;10.73;8.07;;;;;;;;;;1034648;28;20116;-83
2022/10/21 02:42:39;;;;;;;10.10;9.07;;;;;;;;;;1038875;28;20568;-82
2022/10/21 02:43:13;;;;;;;11.45;8.40;;;;;;;;;;1043077;28;20048;-82
2022/10/21 02:43:56;;;;;;;13.88;9.55;;;;;;;;;;1039260;28;20017;-82
2022/10/21 02:44:27;;;;;;;10.98;7.90;;;;;;;;;;1038804;28;20013;-83
2022/10/21 02:44:59;;;;;;;11.23;8.80;;;;;;;;;;1038743;28;20022;-82
2022/10/21 02:45:32;;;;;;;11.85;9.10;;;;;;;;;;1038755;28;20801;-82
2022/10/21 02:46:07;;;;;;;11.32;8.85;;;;;;;;;;1039862;28;20665;-82
2022/10/21 02:46:40;;;;;;;10.75;8.73;;;;;;;;;;1038582;28;20025;-83
2022/10/21 02:47:11;;;;;;;15.70;9.70;;;;;;;;;;1039018;28;20048;-83
2022/10/21 02:47:42;;;;;;;11.02;8.68;;;;;;;;;;1038344;28;20025;-83
2022/10/21 02:48:13;;;;;;;8.02;6.95;;;;;;;;;;1034869;28;20117;-83
2022/10/21 02:48:45;;;;;;;9.40;7.40;;;;;;;;;;1031528;28;20042;-83
2022/10/21 02:49:16;;;;;;;13.73;8.80;;;;;;;;;;1030308;28;20049;-83
2022/10/21 02:49:47;;;;;;;9.00;7.90;;;;;;;;;;1030899;28;20041;-83
2022/10/21 02:50:18;;;;;;;10.25;7.90;;;;;;;;;;1034807;28;20022;-84
2022/10/21 02:50:49;;;;;;;9.50;8.45;;;;;;;;;;1030855;28;20026;-83
2022/10/21 02:51:20;;;;;;;10.75;9.00;;;;;;;;;;1031776;28;20064;-82
2022/10/21 02:51:51;;;;;;;10.43;8.13;;;;;;;;;;1030622;28;20121;-82
2022/10/21 02:52:22;;;;;;;9.82;7.05;;;;;;;;;;1030897;28;20101;-81
2022/10/21 02:52:53;;;;;;;11.57;8.60;;;;;;;;;;1034515;28;20029;-82
2022/10/21 02:53:24;;;;;;;13.88;8.63;;;;;;;;;;1039063;28;20029;-81
2022/10/21 02:53:55;;;;;;;12.90;8.90;;;;;;;;;;1039677;28;20644;-82
2022/10/21 02:54:26;;;;;;;10.52;8.02;;;;;;;;;;1034956;28;20026;-81
2022/10/21 02:54:57;;;;;;;10.25;8.80;;;;;;;;;;1038909;28;20085;-82
2022/10/21 02:55:28;;;;;;;9.82;8.18;;;;;;;;;;1038973;28;20396;-82
2022/10/21 02:55:59;;;;;;;11.23;8.20;;;;;;;;;;1038891;28;20022;-82
2022/10/21 02:56:30;;;;;;;9.40;8.32;;;;;;;;;;1035764;28;20030;-82
2022/10/21 02:57:01;;;;;;;9.10;8.20;;;;;;;;;;1034336;28;20026;-83
2022/10/21 02:57:32;;;;;;;9.82;8.38;;;;;;;;;;1032340;28;20023;-83
2022/10/21 02:58:03;;;;;;;11.90;8.00;;;;;;;;;;1038820;28;20025;-83
2022/10/21 02:58:34;;;;;;;8.80;7.68;;;;;;;;;;1038842;28;20034;-83
2022/10/21 02:59:05;;;;;;;9.15;7.63;;;;;;;;;;1039521;28;20143;-82
2022/10/21 02:59:36;;;;;;;10.80;7.97;;;;;;;;;;1034507;28;20022;-82
2022/10/21 03:00:08;;;;;;;10.00;8.00;;;;;;;;;;1034779;28;20029;-82
2022/10/21 03:00:39;;;;;;;9.90;7.78;;;;;;;;;;1034827;28;20033;-82
2022/10/21 03:01:10;;;;;;;9.68;7.13;;;;;;;;;;1035028;28;20128;-82
2022/10/21 03:01:41;;;;;;;10.50;8.00;;;;;;;;;;1039395;28;20112;-82
2022/10/21 03:02:11;;;;;;;8.88;7.93;;;;;;;;;;1034881;28;20120;-82
2022/10/21 03:02:42;;;;;;;16.20;8.20;;;;;;;;;;1034878;28;20022;-82
2022/10/21 03:03:13;;;;;;;9.43;7.90;;;;;;;;;;1034778;28;20048;-81
2022/10/21 03:03:44;;;;;;;9.57;8.57;;;;;;;;;;1031006;28;20194;-82
2022/10/21 03:04:15;;;;;;;10.63;7.15;;;;;;;;;;1035605;28;20058;-83
2022/10/21 03:04:46;;;;;;;11.98;7.85;;;;;;;;;;1034944;28;20026;-82
2022/10/21 03:05:17;;;;;;;34.25;7.95;;;;;;;;;;1038932;28;20114;-82
2022/10/21 03:05:48;;;;;;;12.27;7.47;;;;;;;;;;1038822;28;20480;-82
2022/10/21 03:06:19;;;;;;;10.98;7.85;;;;;;;;;;1034835;28;20030;-82
2022/10/21 03:06:50;;;;;;;10.38;8.82;;;;;;;;;;1035753;28;20022;-83
2022/10/21 03:07:21;;;;;;;10.02;7.97;;;;;;;;;;1034587;28;20093;-83
2022/10/21 03:07:52;;;;;;;10.73;8.00;;;;;;;;;;1037163;28;20037;-83
2022/10/21 03:08:23;;;;;;;9.45;7.47;;;;;;;;;;1043210;28;20021;-83
2022/10/21 03:08:54;;;;;;;8.70;7.30;;;;;;;;;;1038812;28;20068;-82
2022/10/21 03:09:25;;;;;;;11.10;8.07;;;;;;;;;;1039458;28;20026;-82
2022/10/21 03:09:56;;;;;;;8.32;7.45;;;;;;;;;;1038467;28;20127;-82
2022/10/21 03:10:27;;;;;;;10.70;7.90;;;;;;;;;;1031020;28;20019;-83
2022/10/21 03:10:58;;;;;;;9.05;7.60;;;;;;;;;;1030562;28;20544;-83
2022/10/21 03:11:29;;;;;;;11.85;9.30;;;;;;;;;;1026686;28;20030;-83
2022/10/21 03:12:01;;;;;;;11.50;7.37;;;;;;;;;;1030280;28;20026;-83
2022/10/21 03:12:32;;;;;;;12.02;10.68;;;;;;;;;;1031058;28;20369;-82
2022/10/21 03:13:03;;;;;;;10.50;8.18;;;;;;;;;;1030955;28;20080;-83
2022/10/21 03:13:34;;;;;;;21.13;8.30;;;;;;;;;;1034174;28;20036;-82
2022/10/21 03:14:05;;;;;;;10.00;8.23;;;;;;;;;;1034929;28;20113;-83
2022/10/21 03:14:36;;;;;;;13.07;9.23;;;;;;;;;;1035612;28;20121;-82
2022/10/21 03:15:07;;;;;;;12.02;8.18;;;;;;;;;;1037197;28;20339;-82
2022/10/21 03:15:38;;;;;;;9.80;6.70;;;;;;;;;;1038765;28;20025;-82
2022/10/21 03:16:09;;;;;;;10.20;8.20;;;;;;;;;;1034357;28;20069;-82
2022/10/21 03:16:40;;;;;;;10.27;8.75;;;;;;;;;;1030833;28;20026;-83
2022/10/21 03:17:11;;;;;;;9.82;7.72;;;;;;;;;;1039118;28;20738;-82
2022/10/21 03:17:42;;;;;;;8.55;7.65;;;;;;;;;;1038764;28;20098;-82
2022/10/21 03:18:13;;;;;;;11.05;7.18;;;;;;;;;;1038714;28;20057;-82
2022/10/21 03:18:43;;;;;;;10.20;7.53;;;;;;;;;;1038777;28;20485;-82
2022/10/21 03:19:14;;;;;;;10.98;8.55;;;;;;;;;;1039040;28;20036;-82
2022/10/21 03:19:45;;;;;;;11.30;6.47;;;;;;;;;;1035009;28;20033;-81
2022/10/21 03:20:16;;;;;;;8.40;6.68;;;;;;;;;;1031974;28;20432;-82